createdAt,value
2018-03-28T00:00:39.205Z,2.20
2018-03-28T00:03:06.198Z,2.20
2018-03-28T00:05:33.298Z,2.30
2018-03-28T00:08:00.298Z,2.40
2018-03-28T00:10:27.338Z,2.40
2018-03-28T00:12:54.361Z,2.40
2018-03-28T00:15:21.383Z,2.50
2018-03-28T00:17:48.378Z,2.40
2018-03-28T00:20:15.398Z,2.50
2018-03-28T00:22:42.418Z,2.60
2018-03-28T00:25:09.399Z,2.60
2018-03-28T00:27:36.418Z,2.60
2018-03-28T00:30:03.499Z,2.60
2018-03-28T00:32:30.481Z,2.60
2018-03-28T00:34:57.520Z,2.60
2018-03-28T00:37:24.540Z,2.60
2018-03-28T00:39:51.538Z,2.70
2018-03-28T00:42:18.589Z,2.80
2018-03-28T00:44:45.518Z,2.80
2018-03-28T00:47:12.479Z,2.80
2018-03-28T00:49:39.459Z,2.90
2018-03-28T00:52:06.379Z,2.90
2018-03-28T00:54:33.404Z,2.90
2018-03-28T00:57:00.439Z,2.80
2018-03-28T00:59:27.478Z,2.80
2018-03-28T01:01:54.479Z,2.80
2018-03-28T01:04:21.513Z,2.80
2018-03-28T01:06:49.239Z,2.80
2018-03-28T01:09:16.958Z,2.70
2018-03-28T01:11:44.044Z,2.70
2018-03-28T01:14:11.764Z,2.70
2018-03-28T01:16:38.759Z,2.70
2018-03-28T01:19:05.839Z,2.70
2018-03-28T01:21:32.859Z,2.80
2018-03-28T01:23:59.860Z,2.70
2018-03-28T01:26:26.879Z,2.70
2018-03-28T01:28:53.879Z,2.70
2018-03-28T01:31:20.899Z,2.70
2018-03-28T01:33:47.959Z,2.70
2018-03-28T01:36:22.758Z,2.70
2018-03-28T01:38:50.590Z,2.70
2018-03-28T01:41:28.998Z,2.70
2018-03-28T01:43:56.039Z,2.80
2018-03-28T01:46:23.019Z,2.80
2018-03-28T01:48:50.020Z,2.70
2018-03-28T01:51:17.038Z,2.70
2018-03-28T01:53:43.998Z,2.70
2018-03-28T01:56:10.958Z,2.70
2018-03-28T01:58:37.978Z,2.80
2018-03-28T02:01:04.998Z,2.80
2018-03-28T02:03:31.959Z,2.70
2018-03-28T02:05:58.938Z,2.70
2018-03-28T02:08:25.899Z,2.70
2018-03-28T02:10:52.899Z,2.80
2018-03-28T02:13:19.917Z,2.90
2018-03-28T02:15:46.918Z,2.80
2018-03-28T02:18:13.940Z,3.00
2018-03-28T02:20:41.059Z,2.90
2018-03-28T02:23:08.038Z,2.90
2018-03-28T02:25:35.017Z,2.90
2018-03-28T02:28:02.039Z,2.90
2018-03-28T02:30:29.039Z,3.00
2018-03-28T02:32:56.058Z,2.80
2018-03-28T02:35:23.118Z,2.90
2018-03-28T02:37:50.199Z,3.00
2018-03-28T02:40:17.239Z,3.00
2018-03-28T02:42:44.339Z,3.00
2018-03-28T02:45:11.420Z,2.90
2018-03-28T02:47:38.398Z,2.90
2018-03-28T02:50:05.479Z,3.00
2018-03-28T02:52:32.459Z,2.90
2018-03-28T02:54:59.465Z,2.90
2018-03-28T02:57:26.529Z,3.00
2018-03-28T02:59:53.566Z,3.00
2018-03-28T03:02:20.614Z,2.90
2018-03-28T03:04:47.657Z,2.90
2018-03-28T03:07:14.618Z,2.90
2018-03-28T03:09:41.600Z,2.90
2018-03-28T03:12:08.618Z,3.00
2018-03-28T03:14:35.578Z,2.90
2018-03-28T03:17:02.539Z,2.90
2018-03-28T03:19:29.540Z,2.80
2018-03-28T03:21:56.458Z,2.80
2018-03-28T03:24:23.958Z,2.80
2018-03-28T03:26:51.038Z,2.80
2018-03-28T03:29:18.058Z,2.90
2018-03-28T03:31:45.059Z,3.00
2018-03-28T03:34:12.098Z,3.00
2018-03-28T03:36:39.158Z,3.00
2018-03-28T03:39:06.178Z,3.00
2018-03-28T03:41:33.222Z,3.10
2018-03-28T03:44:01.146Z,3.00
2018-03-28T03:46:28.158Z,3.00
2018-03-28T03:48:55.238Z,3.10
2018-03-28T03:51:27.318Z,3.10
2018-03-28T03:53:54.318Z,3.10
2018-03-28T03:56:21.399Z,3.10
2018-03-28T03:58:54.179Z,3.20
2018-03-28T04:01:21.218Z,3.20
2018-03-28T04:03:48.198Z,3.10
2018-03-28T04:06:15.918Z,3.10
2018-03-28T04:08:42.938Z,3.10
2018-03-28T04:11:09.901Z,3.20
2018-03-28T04:13:36.878Z,3.20
2018-03-28T04:16:03.918Z,3.20
2018-03-28T04:18:30.879Z,3.20
2018-03-28T04:20:58.598Z,3.20
2018-03-28T04:23:25.599Z,3.20
2018-03-28T04:25:52.558Z,3.20
2018-03-28T04:28:19.518Z,3.20
2018-03-28T04:30:46.539Z,3.30
2018-03-28T04:33:14.220Z,3.30
2018-03-28T04:35:41.118Z,3.40
2018-03-28T04:38:08.199Z,3.40
2018-03-28T04:40:35.238Z,3.40
2018-03-28T04:43:02.258Z,3.40
2018-03-28T04:45:29.338Z,3.40
2018-03-28T04:47:56.318Z,3.40
2018-03-28T04:50:23.338Z,3.40
2018-03-28T04:52:50.419Z,3.50
2018-03-28T04:55:17.398Z,3.40
2018-03-28T04:57:45.198Z,3.30
2018-03-28T05:00:12.278Z,3.20
2018-03-28T05:02:39.278Z,3.20
2018-03-28T05:05:06.258Z,3.20
2018-03-28T05:07:33.298Z,3.30
2018-03-28T05:10:00.298Z,3.30
2018-03-28T05:12:32.278Z,3.20
2018-03-28T05:14:59.298Z,3.20
2018-03-28T05:17:26.297Z,3.20
2018-03-28T05:19:53.278Z,3.30
2018-03-28T05:22:20.338Z,3.40
2018-03-28T05:24:48.118Z,3.50
2018-03-28T05:27:15.838Z,3.50
2018-03-28T05:29:42.918Z,3.60
2018-03-28T05:32:09.877Z,3.50
2018-03-28T05:34:37.638Z,3.50
2018-03-28T05:37:04.664Z,3.70
2018-03-28T05:39:31.597Z,3.60
2018-03-28T05:41:58.537Z,3.70
2018-03-28T05:44:25.572Z,3.60
2018-03-28T05:46:52.565Z,3.60
2018-03-28T05:49:20.320Z,3.70
2018-03-28T05:51:47.418Z,3.80
2018-03-28T05:54:14.418Z,3.80
2018-03-28T05:56:41.418Z,3.70
2018-03-28T05:59:08.445Z,3.70
2018-03-28T06:01:35.458Z,3.70
2018-03-28T06:04:02.444Z,3.80
2018-03-28T06:06:29.478Z,3.80
2018-03-28T06:08:56.498Z,3.90
2018-03-28T06:11:24.300Z,3.90
2018-03-28T06:13:51.364Z,4.00
2018-03-28T06:16:18.399Z,4.00
2018-03-28T06:18:45.418Z,4.10
2018-03-28T06:21:12.438Z,4.20
2018-03-28T06:23:39.437Z,4.30
2018-03-28T06:26:06.423Z,4.40
2018-03-28T06:28:33.477Z,4.50
2018-03-28T06:31:00.482Z,4.50
2018-03-28T06:33:27.478Z,4.50
2018-03-28T06:35:54.502Z,4.60
2018-03-28T06:38:21.518Z,4.70
2018-03-28T06:40:48.498Z,4.70
2018-03-28T06:43:15.538Z,4.80
2018-03-28T06:45:42.518Z,4.80
2018-03-28T06:48:09.481Z,4.90
2018-03-28T06:50:36.438Z,5.00
2018-03-28T06:53:03.458Z,5.10
2018-03-28T06:55:30.478Z,5.10
2018-03-28T06:57:58.258Z,5.30
2018-03-28T07:00:25.258Z,5.30
2018-03-28T07:02:52.238Z,5.20
2018-03-28T07:05:20.019Z,5.20
2018-03-28T07:07:46.997Z,5.20
2018-03-28T07:10:14.038Z,5.00
2018-03-28T07:12:41.138Z,5.00
2018-03-28T07:15:08.898Z,5.10
2018-03-28T07:17:36.661Z,5.00
2018-03-28T07:20:04.478Z,5.00
2018-03-28T07:22:31.478Z,5.00
2018-03-28T07:24:58.499Z,5.00
2018-03-28T07:27:25.579Z,5.10
2018-03-28T07:29:53.320Z,5.10
2018-03-28T07:32:20.298Z,5.20
2018-03-28T07:34:47.318Z,5.30
2018-03-28T07:37:14.318Z,5.40
2018-03-28T07:39:41.298Z,5.50
2018-03-28T07:42:08.338Z,5.60
2018-03-28T07:44:35.318Z,5.60
2018-03-28T07:47:03.178Z,5.60
2018-03-28T07:49:30.178Z,5.50
2018-03-28T07:51:58.138Z,5.50
2018-03-28T07:54:25.099Z,5.50
2018-03-28T07:56:52.238Z,5.50
2018-03-28T07:59:19.238Z,5.70
2018-03-28T08:01:46.238Z,5.80
2018-03-28T08:04:13.318Z,5.90
2018-03-28T08:06:40.318Z,5.90
2018-03-28T08:09:07.358Z,5.90
2018-03-28T08:11:34.398Z,6.00
2018-03-28T08:14:01.398Z,5.80
2018-03-28T08:16:29.218Z,5.70
2018-03-28T08:18:56.758Z,5.70
2018-03-28T08:21:23.758Z,5.60
2018-03-28T08:23:50.778Z,5.70
2018-03-28T08:26:18.638Z,5.70
2018-03-28T08:28:45.640Z,5.80
2018-03-28T08:31:12.638Z,5.90
2018-03-28T08:33:39.659Z,5.90
2018-03-28T08:36:06.707Z,5.90
2018-03-28T08:38:33.718Z,6.00
2018-03-28T08:41:00.762Z,5.90
2018-03-28T08:43:28.500Z,5.90
2018-03-28T08:45:55.498Z,5.80
2018-03-28T08:48:22.559Z,5.80
2018-03-28T08:50:49.519Z,5.80
2018-03-28T08:53:16.459Z,5.70
2018-03-28T08:55:44.239Z,5.70
2018-03-28T08:58:11.628Z,5.60
2018-03-28T09:00:38.719Z,5.60
2018-03-28T09:03:05.778Z,5.60
2018-03-28T09:05:32.819Z,5.70
2018-03-28T09:08:00.579Z,5.80
2018-03-28T09:10:28.338Z,5.80
2018-03-28T09:12:55.338Z,5.80
2018-03-28T09:15:22.458Z,5.90
2018-03-28T09:17:49.579Z,5.90
2018-03-28T09:20:16.619Z,5.90
2018-03-28T09:22:43.618Z,6.00
2018-03-28T09:25:10.719Z,5.90
2018-03-28T09:27:37.778Z,5.90
2018-03-28T09:30:04.766Z,6.00
2018-03-28T09:32:32.545Z,5.90
2018-03-28T09:34:59.527Z,5.90
2018-03-28T09:37:26.524Z,6.00
2018-03-28T09:39:54.318Z,6.00
2018-03-28T09:42:21.278Z,6.20
2018-03-28T09:44:48.278Z,6.20
2018-03-28T09:47:16.039Z,6.20
2018-03-28T09:49:43.739Z,6.20
2018-03-28T09:52:10.679Z,6.20
2018-03-28T09:54:37.758Z,6.10
2018-03-28T09:57:04.858Z,6.20
2018-03-28T09:59:31.918Z,6.20
2018-03-28T10:01:59.018Z,6.20
2018-03-28T10:04:26.998Z,6.10
2018-03-28T10:06:54.742Z,6.10
2018-03-28T10:09:21.818Z,6.10
2018-03-28T10:11:48.878Z,6.10
2018-03-28T10:14:15.898Z,6.20
2018-03-28T10:16:43.059Z,6.30
2018-03-28T10:19:10.839Z,6.40
2018-03-28T10:21:37.946Z,6.50
2018-03-28T10:24:05.049Z,6.60
2018-03-28T10:26:32.024Z,6.70
2018-03-28T10:29:04.084Z,6.80
2018-03-28T10:31:31.184Z,6.90
2018-03-28T10:33:58.984Z,7.10
2018-03-28T10:36:26.044Z,7.20
2018-03-28T10:38:53.105Z,7.20
2018-03-28T10:41:20.165Z,7.30
2018-03-28T10:43:47.124Z,7.20
2018-03-28T10:46:14.164Z,7.20
2018-03-28T10:48:41.224Z,7.20
2018-03-28T10:51:08.984Z,7.20
2018-03-28T10:53:36.784Z,7.20
2018-03-28T10:56:03.845Z,7.30
2018-03-28T10:58:30.865Z,7.40
2018-03-28T11:00:57.904Z,7.40
2018-03-28T11:03:24.950Z,7.50
2018-03-28T11:05:52.310Z,7.60
2018-03-28T11:08:19.465Z,7.70
2018-03-28T11:10:46.484Z,7.70
2018-03-28T11:13:14.264Z,7.80
2018-03-28T11:15:41.304Z,7.80
2018-03-28T11:18:08.304Z,7.80
2018-03-28T11:20:35.264Z,7.90
2018-03-28T11:23:02.344Z,7.90
2018-03-28T11:25:29.385Z,7.80
2018-03-28T11:27:57.124Z,7.80
2018-03-28T11:30:24.244Z,7.80
2018-03-28T11:32:51.284Z,7.90
2018-03-28T11:35:18.303Z,8.10
2018-03-28T11:37:45.385Z,8.20
2018-03-28T11:40:12.464Z,8.30
2018-03-28T11:42:39.543Z,8.30
2018-03-28T11:45:06.624Z,8.60
2018-03-28T11:47:33.686Z,8.90
2018-03-28T11:50:00.667Z,9.20
2018-03-28T11:52:27.727Z,9.40
2018-03-28T11:54:54.744Z,9.50
2018-03-28T11:57:21.763Z,9.40
2018-03-28T11:59:48.789Z,9.30
2018-03-28T12:02:18.723Z,9.30
2018-03-28T12:04:45.724Z,9.30
2018-03-28T12:07:12.784Z,9.20
2018-03-28T12:09:39.764Z,9.30
2018-03-28T12:12:06.823Z,9.40
2018-03-28T12:14:33.944Z,9.50
2018-03-28T12:17:00.963Z,9.40
2018-03-28T12:19:27.944Z,9.40
2018-03-28T12:21:54.984Z,9.40
2018-03-28T12:24:21.964Z,9.30
2018-03-28T12:26:49.122Z,9.50
2018-03-28T12:29:16.184Z,9.50
2018-03-28T12:31:43.924Z,9.50
2018-03-28T12:34:11.144Z,9.60
2018-03-28T12:36:38.206Z,9.50
2018-03-28T12:39:06.169Z,9.50
2018-03-28T12:41:33.204Z,9.50
2018-03-28T12:44:00.264Z,9.50
2018-03-28T12:46:27.264Z,9.50
2018-03-28T12:48:54.244Z,9.60
2018-03-28T12:51:21.624Z,9.80
2018-03-28T12:53:48.604Z,9.90
2018-03-28T12:56:16.284Z,9.90
2018-03-28T12:58:43.305Z,10.10
2018-03-28T13:01:10.324Z,10.30
2018-03-28T13:03:37.344Z,10.50
2018-03-28T13:06:04.404Z,10.40
2018-03-28T13:08:31.464Z,10.40
2018-03-28T13:10:58.424Z,10.40
2018-03-28T13:13:25.564Z,10.60
2018-03-28T13:15:52.607Z,10.80
2018-03-28T13:18:19.664Z,10.80
2018-03-28T13:20:46.744Z,10.90
2018-03-28T13:23:13.764Z,10.80
2018-03-28T13:25:40.830Z,10.90
2018-03-28T13:28:08.663Z,10.90
2018-03-28T13:30:35.940Z,10.90
2018-03-28T13:33:02.980Z,10.80
2018-03-28T13:35:30.040Z,10.60
2018-03-28T13:37:57.781Z,10.40
2018-03-28T13:40:24.800Z,10.30
2018-03-28T13:42:51.860Z,10.20
2018-03-28T13:45:18.860Z,10.00
2018-03-28T13:47:45.862Z,9.80
2018-03-28T13:50:12.880Z,9.70
2018-03-28T13:52:39.880Z,9.70
2018-03-28T13:55:06.879Z,9.70
2018-03-28T13:57:34.040Z,9.70
2018-03-28T14:00:00.989Z,9.70
2018-03-28T14:02:28.120Z,9.80
2018-03-28T14:04:55.122Z,10.00
2018-03-28T14:07:22.940Z,10.10
2018-03-28T14:09:50.083Z,10.30
2018-03-28T14:12:17.068Z,10.40
2018-03-28T14:14:44.127Z,10.50
2018-03-28T14:17:11.968Z,10.50
2018-03-28T14:19:39.108Z,10.60
2018-03-28T14:22:06.109Z,10.60
2018-03-28T14:24:33.490Z,10.60
2018-03-28T14:27:00.488Z,10.50
2018-03-28T14:29:28.227Z,10.60
2018-03-28T14:31:55.270Z,10.50
2018-03-28T14:34:23.041Z,10.50
2018-03-28T14:36:49.866Z,10.50
2018-03-28T14:39:16.906Z,10.50
2018-03-28T14:41:43.721Z,10.40
2018-03-28T14:44:11.029Z,10.40
2018-03-28T14:46:38.015Z,10.40
2018-03-28T14:49:04.860Z,10.40
2018-03-28T14:51:31.780Z,10.50
2018-03-28T14:53:59.963Z,10.50
2018-03-28T14:56:27.082Z,10.40
2018-03-28T14:58:54.128Z,10.40
2018-03-28T15:01:21.160Z,10.40
2018-03-28T15:03:49.569Z,10.30
2018-03-28T15:06:16.669Z,10.30
2018-03-28T15:08:43.569Z,10.30
2018-03-28T15:11:10.652Z,10.20
2018-03-28T15:13:37.508Z,10.10
2018-03-28T15:16:04.647Z,10.00
2018-03-28T15:18:31.637Z,9.90
2018-03-28T15:20:59.442Z,9.90
2018-03-28T15:23:26.462Z,9.80
2018-03-28T15:25:54.242Z,9.90
2018-03-28T15:28:21.245Z,9.90
2018-03-28T15:30:48.242Z,9.80
2018-03-28T15:33:15.149Z,9.90
2018-03-28T15:35:42.142Z,9.90
2018-03-28T15:38:09.122Z,9.80
2018-03-28T15:40:36.164Z,9.70
2018-03-28T15:43:03.079Z,9.80
2018-03-28T15:45:30.212Z,9.70
2018-03-28T15:47:57.166Z,9.70
2018-03-28T15:50:24.161Z,9.80
2018-03-28T15:52:52.058Z,9.90
2018-03-28T15:55:19.098Z,10.10
2018-03-28T15:57:46.676Z,10.10
2018-03-28T16:00:13.644Z,10.10
2018-03-28T16:02:41.948Z,10.10
2018-03-28T16:05:09.123Z,10.20
2018-03-28T16:07:36.779Z,10.20
2018-03-28T16:10:04.498Z,10.10
2018-03-28T16:12:31.544Z,10.30
2018-03-28T16:14:59.319Z,10.20
2018-03-28T16:17:26.406Z,10.20
2018-03-28T16:19:53.439Z,10.20
2018-03-28T16:22:21.367Z,10.10
2018-03-28T16:24:48.562Z,10.10
2018-03-28T16:27:16.443Z,10.00
2018-03-28T16:29:43.314Z,10.00
2018-03-28T16:32:10.214Z,10.00
2018-03-28T16:34:40.039Z,9.90
2018-03-28T16:37:07.699Z,9.80
2018-03-28T16:39:35.518Z,9.80
2018-03-28T16:42:02.454Z,9.60
2018-03-28T16:44:29.507Z,9.60
2018-03-28T16:46:56.542Z,9.70
2018-03-28T16:49:23.622Z,9.60
2018-03-28T16:51:50.570Z,9.70
2018-03-28T16:54:17.464Z,9.60
2018-03-28T16:56:44.501Z,9.50
2018-03-28T16:59:11.519Z,9.50
2018-03-28T17:01:38.569Z,9.50
2018-03-28T17:04:06.236Z,9.50
2018-03-28T17:06:33.241Z,9.40
2018-03-28T17:09:00.162Z,9.50
2018-03-28T17:11:27.226Z,9.50
2018-03-28T17:13:54.241Z,9.50
2018-03-28T17:16:21.320Z,9.50
2018-03-28T17:18:48.328Z,9.50
2018-03-28T17:21:15.237Z,9.30
2018-03-28T17:23:43.260Z,9.20
2018-03-28T17:26:11.120Z,9.20
2018-03-28T17:28:38.141Z,9.10
2018-03-28T17:31:05.984Z,9.20
2018-03-28T17:33:33.728Z,9.10
2018-03-28T17:36:00.829Z,9.10
2018-03-28T17:38:27.951Z,9.10
2018-03-28T17:40:55.790Z,9.10
2018-03-28T17:43:22.829Z,9.20
2018-03-28T17:45:49.889Z,9.10
2018-03-28T17:48:17.029Z,9.00
2018-03-28T17:50:44.095Z,9.10
2018-03-28T17:53:11.069Z,9.00
2018-03-28T17:55:38.152Z,8.90
2018-03-28T17:58:05.269Z,8.90
2018-03-28T18:00:32.509Z,8.90
2018-03-28T18:02:59.789Z,8.90
2018-03-28T18:05:27.196Z,8.80
2018-03-28T18:07:54.269Z,8.90
2018-03-28T18:10:22.109Z,8.80
2018-03-28T18:12:49.310Z,8.80
2018-03-28T18:15:16.349Z,8.90
2018-03-28T18:17:43.391Z,8.80
2018-03-28T18:20:10.429Z,8.90
2018-03-28T18:22:37.490Z,8.80
2018-03-28T18:25:04.589Z,8.80
2018-03-28T18:27:31.667Z,8.70
2018-03-28T18:29:58.770Z,8.70
2018-03-28T18:32:25.775Z,8.70
2018-03-28T18:34:52.911Z,8.70
2018-03-28T18:37:19.994Z,8.70
2018-03-28T18:39:47.109Z,8.60
2018-03-28T18:42:14.210Z,8.60
2018-03-28T18:44:42.129Z,8.60
2018-03-28T18:47:09.269Z,8.60
2018-03-28T18:49:36.508Z,8.60
2018-03-28T18:52:03.570Z,8.50
2018-03-28T18:54:30.669Z,8.50
2018-03-28T18:57:02.829Z,8.50
2018-03-28T18:59:29.909Z,8.50
2018-03-28T19:01:57.069Z,8.50
2018-03-28T19:04:24.189Z,8.50
2018-03-28T19:06:51.389Z,8.50
2018-03-28T19:09:18.430Z,8.40
2018-03-28T19:11:45.809Z,8.40
2018-03-28T19:14:12.869Z,8.50
2018-03-28T19:16:39.889Z,8.50
2018-03-28T19:19:06.929Z,8.40
2018-03-28T19:21:34.815Z,8.50
2018-03-28T19:24:01.894Z,8.50
2018-03-28T19:26:29.055Z,8.40
2018-03-28T19:28:56.130Z,8.40
2018-03-28T19:31:23.935Z,8.40
2018-03-28T19:33:51.044Z,8.50
2018-03-28T19:36:18.830Z,8.50
2018-03-28T19:38:45.951Z,8.60
2018-03-28T19:41:13.789Z,8.50
2018-03-28T19:43:40.930Z,8.50
2018-03-28T19:46:08.056Z,8.40
2018-03-28T19:48:35.171Z,8.40
2018-03-28T19:51:02.950Z,8.40
2018-03-28T19:53:29.989Z,8.40
2018-03-28T19:55:57.009Z,8.40
2018-03-28T19:58:24.055Z,8.40
2018-03-28T20:00:51.135Z,8.40
2018-03-28T20:03:18.213Z,8.40
2018-03-28T20:05:45.229Z,8.40
2018-03-28T20:08:12.256Z,8.40
2018-03-28T20:10:39.329Z,8.40
2018-03-28T20:13:06.429Z,8.30
2018-03-28T20:15:33.589Z,8.30
2018-03-28T20:18:00.669Z,8.40
2018-03-28T20:20:27.696Z,8.30
2018-03-28T20:23:00.629Z,8.30
2018-03-28T20:25:32.750Z,8.40
2018-03-28T20:28:05.010Z,8.40
2018-03-28T20:30:32.189Z,8.40
2018-03-28T20:32:59.229Z,8.40
2018-03-28T20:35:26.289Z,8.40
2018-03-28T20:37:53.350Z,8.50
2018-03-28T20:40:20.390Z,8.50
2018-03-28T20:42:47.549Z,8.50
2018-03-28T20:45:14.588Z,8.50
2018-03-28T20:47:42.369Z,8.50
2018-03-28T20:50:10.189Z,8.50
2018-03-28T20:52:37.269Z,8.50
2018-03-28T20:55:05.009Z,8.50
2018-03-28T20:57:32.289Z,8.50
2018-03-28T20:59:59.409Z,8.50
2018-03-28T21:02:26.529Z,8.50
2018-03-28T21:04:53.670Z,8.50
2018-03-28T21:07:20.758Z,8.50
2018-03-28T21:09:47.869Z,8.50
2018-03-28T21:12:15.089Z,8.50
2018-03-28T21:14:42.912Z,9.00
2018-03-28T21:17:09.989Z,9.30
2018-03-28T21:19:37.069Z,9.30
2018-03-28T21:22:04.110Z,9.10
2018-03-28T21:24:31.150Z,9.30
2018-03-28T21:26:58.990Z,9.30
2018-03-28T21:29:26.030Z,9.00
2018-03-28T21:31:53.073Z,8.90
2018-03-28T21:34:20.131Z,8.80
2018-03-28T21:36:47.170Z,8.80
2018-03-28T21:39:14.209Z,8.80
2018-03-28T21:41:42.829Z,8.80
2018-03-28T21:44:10.609Z,8.80
2018-03-28T21:46:37.789Z,8.80
2018-03-28T21:49:05.685Z,8.80
2018-03-28T21:51:32.790Z,8.80
2018-03-28T21:54:00.911Z,8.80
2018-03-28T21:56:28.749Z,8.90
2018-03-28T21:58:55.830Z,8.90
2018-03-28T22:01:23.709Z,8.90
2018-03-28T22:03:50.789Z,8.90
2018-03-28T22:06:17.870Z,8.90
2018-03-28T22:08:45.010Z,8.90
2018-03-28T22:11:12.110Z,8.80
2018-03-28T22:13:39.229Z,8.90
2018-03-28T22:16:06.709Z,8.90
2018-03-28T22:18:33.749Z,8.90
2018-03-28T22:21:00.822Z,8.80
2018-03-28T22:23:27.829Z,8.80
2018-03-28T22:25:54.870Z,8.80
2018-03-28T22:28:21.890Z,8.80
2018-03-28T22:30:48.929Z,8.80
2018-03-28T22:33:16.071Z,8.80
2018-03-28T22:35:43.149Z,8.70
2018-03-28T22:38:10.209Z,8.70
2018-03-28T22:40:37.375Z,8.80
2018-03-28T22:43:05.215Z,8.80
2018-03-28T22:45:32.270Z,8.80
2018-03-28T22:47:59.431Z,8.70
2018-03-28T22:50:27.272Z,8.70
2018-03-28T22:52:54.430Z,8.80
2018-03-28T22:55:21.469Z,8.70
2018-03-28T22:57:48.509Z,8.70
2018-03-28T23:00:15.870Z,8.80
2018-03-28T23:02:42.920Z,8.70
2018-03-28T23:05:09.952Z,8.70
2018-03-28T23:07:37.010Z,8.70
2018-03-28T23:10:04.049Z,8.70
2018-03-28T23:12:31.150Z,8.70
2018-03-28T23:14:58.190Z,8.70
2018-03-28T23:17:25.156Z,8.70
2018-03-28T23:19:52.229Z,8.80
2018-03-28T23:22:39.330Z,8.80
2018-03-28T23:25:06.495Z,8.80
2018-03-28T23:27:33.615Z,8.80
2018-03-28T23:30:00.710Z,8.80
2018-03-28T23:32:27.812Z,8.80
2018-03-28T23:34:54.964Z,8.80
2018-03-28T23:37:22.030Z,8.80
2018-03-28T23:39:49.089Z,8.80
2018-03-28T23:42:16.223Z,8.80
2018-03-28T23:44:43.249Z,8.80
2018-03-28T23:47:10.349Z,8.70
2018-03-28T23:49:37.389Z,8.60
2018-03-28T23:52:04.429Z,8.60
2018-03-28T23:54:31.409Z,8.70
2018-03-28T23:56:58.509Z,8.60
2018-03-28T23:59:25.594Z,8.80
